Sog Xian, China
Current Conditions -  °F | °C
As of 2:50 AM on Sunday 26 Oct 2014 (Local Time) from VNKT Reporting Station
Few Clouds Few Clouds  
Wind Chill: 55°   Ceiling: Unl
Heat Index: 55°   Visibility: 5mi
Dew Point: 52°   Wind: 3mph
Humidity: 88%   Direction: 90°E
Pressure: 30.18"   Gusts: NA
Location:  31.88°N, 93.78°E
Report Text: VNKT 251850Z 09003KT 8000 FEW020 13/11 Q1022 NOSIG
Loading
Personal Weather Stations






























Interactive Weather Map
Tropical Storm Tracking
New forecast layout! Learn more

10-Day Weather Forecast

Advertisements
Track Severe Weather on mobile